sensor_id;sensor_type;location;lat;lon;timestamp;temperature;humidity
1075;DHT22;526;51.392;12.448;2023-09-18T04:02:12;17.70;97.30
1075;DHT22;526;51.392;12.448;2023-09-18T04:04:38;17.60;97.30
1075;DHT22;526;51.392;12.448;2023-09-18T04:07:07;17.60;97.30
1075;DHT22;526;51.392;12.448;2023-09-18T04:09:33;17.60;97.30
1075;DHT22;526;51.392;12.448;2023-09-18T04:12:07;17.50;97.30
1075;DHT22;526;51.392;12.448;2023-09-18T04:14:33;17.50;97.30
1075;DHT22;526;51.392;12.448;2023-09-18T04:17:01;17.40;97.30
1075;DHT22;526;51.392;12.448;2023-09-18T04:19:27;17.40;97.30
1075;DHT22;526;51.392;12.448;2023-09-18T04:21:56;17.40;97.30
1075;DHT22;526;51.392;12.448;2023-09-18T04:24:22;17.40;97.30
1075;DHT22;526;51.392;12.448;2023-09-18T04:26:48;17.40;97.30
1075;DHT22;526;51.392;12.448;2023-09-18T04:29:16;17.40;97.30
1075;DHT22;526;51.392;12.448;2023-09-18T04:31:51;17.40;97.30
1075;DHT22;526;51.392;12.448;2023-09-18T04:34:19;17.40;97.30
1075;DHT22;526;51.392;12.448;2023-09-18T04:36:45;17.40;97.30
1075;DHT22;526;51.392;12.448;2023-09-18T04:39:11;17.40;97.30
1075;DHT22;526;51.392;12.448;2023-09-18T04:41:36;17.40;97.30
1075;DHT22;526;51.392;12.448;2023-09-18T04:44:02;17.40;97.30
1075;DHT22;526;51.392;12.448;2023-09-18T04:46:28;17.40;97.30
1075;DHT22;526;51.392;12.448;2023-09-18T04:48:55;17.30;97.30
1075;DHT22;526;51.392;12.448;2023-09-18T04:51:20;17.30;97.30
1075;DHT22;526;51.392;12.448;2023-09-18T04:53:48;17.40;97.30
1075;DHT22;526;51.392;12.448;2023-09-18T04:56:17;17.30;97.30
1075;DHT22;526;51.392;12.448;2023-09-18T04:58:46;17.40;97.30
1075;DHT22;526;51.392;12.448;2023-09-18T05:01:16;17.40;97.30
1075;DHT22;526;51.392;12.448;2023-09-18T05:03:42;17.40;97.30
1075;DHT22;526;51.392;12.448;2023-09-18T05:06:08;17.40;97.30
1075;DHT22;526;51.392;12.448;2023-09-18T05:08:34;17.50;97.30
1075;DHT22;526;51.392;12.448;2023-09-18T05:11:01;17.50;97.30
1075;DHT22;526;51.392;12.448;2023-09-18T05:13:29;17.50;97.30
1075;DHT22;526;51.392;12.448;2023-09-18T05:16:15;17.60;97.30
1075;DHT22;526;51.392;12.448;2023-09-18T05:18:44;17.60;97.30
1075;DHT22;526;51.392;12.448;2023-09-18T05:21:10;17.60;97.30
1075;DHT22;526;51.392;12.448;2023-09-18T05:23:36;17.60;97.30
1075;DHT22;526;51.392;12.448;2023-09-18T05:26:12;17.60;97.30
1075;DHT22;526;51.392;12.448;2023-09-18T05:28:39;17.60;97.30
1075;DHT22;526;51.392;12.448;2023-09-18T05:31:05;17.60;97.30
1075;DHT22;526;51.392;12.448;2023-09-18T05:33:31;17.60;97.30
1075;DHT22;526;51.392;12.448;2023-09-18T05:35:56;17.60;97.30
1075;DHT22;526;51.392;12.448;2023-09-18T05:38:24;17.60;97.30
1075;DHT22;526;51.392;12.448;2023-09-18T05:40:49;17.70;97.30
1075;DHT22;526;51.392;12.448;2023-09-18T05:43:15;17.70;97.30
1075;DHT22;526;51.392;12.448;2023-09-18T05:45:40;17.70;97.30
1075;DHT22;526;51.392;12.448;2023-09-18T05:48:06;17.80;97.30
1075;DHT22;526;51.392;12.448;2023-09-18T05:50:33;17.80;97.30
1075;DHT22;526;51.392;12.448;2023-09-18T05:53:01;17.80;97.30
1075;DHT22;526;51.392;12.448;2023-09-18T05:55:29;17.90;97.30
1075;DHT22;526;51.392;12.448;2023-09-18T05:57:55;17.90;97.30
1075;DHT22;526;51.392;12.448;2023-09-18T06:00:23;18.00;97.30
1075;DHT22;526;51.392;12.448;2023-09-18T06:02:52;18.00;97.30
1075;DHT22;526;51.392;12.448;2023-09-18T06:05:20;18.10;97.30
1075;DHT22;526;51.392;12.448;2023-09-18T06:07:49;18.10;97.30
1075;DHT22;526;51.392;12.448;2023-09-18T06:10:14;18.10;97.30
1075;DHT22;526;51.392;12.448;2023-09-18T06:12:42;18.20;97.30
1075;DHT22;526;51.392;12.448;2023-09-18T06:15:09;18.20;97.30
1075;DHT22;526;51.392;12.448;2023-09-18T06:17:42;18.30;97.30
1075;DHT22;526;51.392;12.448;2023-09-18T06:20:11;18.30;97.30
1075;DHT22;526;51.392;12.448;2023-09-18T06:22:39;18.30;97.30
1075;DHT22;526;51.392;12.448;2023-09-18T06:25:08;18.40;97.30
1075;DHT22;526;51.392;12.448;2023-09-18T06:27:42;18.40;97.30
1075;DHT22;526;51.392;12.448;2023-09-18T06:30:08;18.40;97.30
1075;DHT22;526;51.392;12.448;2023-09-18T06:32:42;18.50;97.30
1075;DHT22;526;51.392;12.448;2023-09-18T06:35:10;18.50;97.30
1075;DHT22;526;51.392;12.448;2023-09-18T06:37:35;18.50;97.30
1075;DHT22;526;51.392;12.448;2023-09-18T06:40:05;18.60;97.30
1075;DHT22;526;51.392;12.448;2023-09-18T06:42:32;18.60;97.30
1075;DHT22;526;51.392;12.448;2023-09-18T06:44:58;18.70;97.30
1075;DHT22;526;51.392;12.448;2023-09-18T06:47:24;18.80;97.30
1075;DHT22;526;51.392;12.448;2023-09-18T06:49:50;18.90;97.30
1075;DHT22;526;51.392;12.448;2023-09-18T06:52:16;18.90;97.30
1075;DHT22;526;51.392;12.448;2023-09-18T06:54:44;19.00;97.30
1075;DHT22;526;51.392;12.448;2023-09-18T06:57:10;19.10;97.30
1075;DHT22;526;51.392;12.448;2023-09-18T06:59:35;19.20;97.30
1075;DHT22;526;51.392;12.448;2023-09-18T07:02:01;19.40;97.30
1075;DHT22;526;51.392;12.448;2023-09-18T07:04:27;19.50;97.30
1075;DHT22;526;51.392;12.448;2023-09-18T07:06:55;19.60;97.30
1075;DHT22;526;51.392;12.448;2023-09-18T07:09:21;19.80;97.30
1075;DHT22;526;51.392;12.448;2023-09-18T07:11:48;19.90;97.30
1075;DHT22;526;51.392;12.448;2023-09-18T07:14:14;20.00;97.30
1075;DHT22;526;51.392;12.448;2023-09-18T07:16:43;20.20;97.30
1075;DHT22;526;51.392;12.448;2023-09-18T07:19:08;20.30;97.30
1075;DHT22;526;51.392;12.448;2023-09-18T07:21:37;20.40;97.30
1075;DHT22;526;51.392;12.448;2023-09-18T07:24:06;20.50;97.30
1075;DHT22;526;51.392;12.448;2023-09-18T07:26:31;20.60;97.30
1075;DHT22;526;51.392;12.448;2023-09-18T07:28:57;20.70;97.30
1075;DHT22;526;51.392;12.448;2023-09-18T07:31:24;20.80;97.30
1075;DHT22;526;51.392;12.448;2023-09-18T07:33:50;20.90;97.30
1075;DHT22;526;51.392;12.448;2023-09-18T07:36:17;20.90;97.30
1075;DHT22;526;51.392;12.448;2023-09-18T07:38:42;20.90;97.30
1075;DHT22;526;51.392;12.448;2023-09-18T07:41:08;21.00;97.30
1075;DHT22;526;51.392;12.448;2023-09-18T07:43:34;21.10;97.30
1075;DHT22;526;51.392;12.448;2023-09-18T07:46:00;21.20;97.30
1075;DHT22;526;51.392;12.448;2023-09-18T07:48:27;21.20;97.30
1075;DHT22;526;51.392;12.448;2023-09-18T07:50:52;21.40;97.30
1075;DHT22;526;51.392;12.448;2023-09-18T07:53:20;21.50;97.30
1075;DHT22;526;51.392;12.448;2023-09-18T07:55:45;21.60;97.30
1075;DHT22;526;51.392;12.448;2023-09-18T07:58:11;21.60;97.30
1075;DHT22;526;51.392;12.448;2023-09-18T08:00:39;21.70;97.30
1075;DHT22;526;51.392;12.448;2023-09-18T08:03:07;21.80;97.30
1075;DHT22;526;51.392;12.448;2023-09-18T08:05:33;21.80;97.30
1075;DHT22;526;51.392;12.448;2023-09-18T08:07:59;21.80;97.30
1075;DHT22;526;51.392;12.448;2023-09-18T08:10:26;21.90;97.30
1075;DHT22;526;51.392;12.448;2023-09-18T08:12:51;21.90;97.30
1075;DHT22;526;51.392;12.448;2023-09-18T08:15:19;21.90;97.30
1075;DHT22;526;51.392;12.448;2023-09-18T08:17:45;22.00;97.30
1075;DHT22;526;51.392;12.448;2023-09-18T08:20:12;22.00;97.30
1075;DHT22;526;51.392;12.448;2023-09-18T08:22:39;22.00;97.30
1075;DHT22;526;51.392;12.448;2023-09-18T08:25:06;22.10;97.30
1075;DHT22;526;51.392;12.448;2023-09-18T08:27:37;22.10;97.30
1075;DHT22;526;51.392;12.448;2023-09-18T08:30:08;22.10;97.30
1075;DHT22;526;51.392;12.448;2023-09-18T08:32:35;22.20;97.30
1075;DHT22;526;51.392;12.448;2023-09-18T08:35:01;22.20;97.30
1075;DHT22;526;51.392;12.448;2023-09-18T08:37:30;22.20;97.30
1075;DHT22;526;51.392;12.448;2023-09-18T08:39:56;22.30;97.30
1075;DHT22;526;51.392;12.448;2023-09-18T08:42:22;22.30;97.30
1075;DHT22;526;51.392;12.448;2023-09-18T08:44:50;22.30;97.30
1075;DHT22;526;51.392;12.448;2023-09-18T08:47:19;22.30;97.00
1075;DHT22;526;51.392;12.448;2023-09-18T08:49:48;22.30;97.30
1075;DHT22;526;51.392;12.448;2023-09-18T08:52:15;22.30;96.80
1075;DHT22;526;51.392;12.448;2023-09-18T08:54:51;22.30;97.20
1075;DHT22;526;51.392;12.448;2023-09-18T08:57:21;22.40;97.10
1075;DHT22;526;51.392;12.448;2023-09-18T08:59:48;22.40;96.60
1075;DHT22;526;51.392;12.448;2023-09-18T09:02:13;22.50;97.30
1075;DHT22;526;51.392;12.448;2023-09-18T09:04:39;22.50;97.10
1075;DHT22;526;51.392;12.448;2023-09-18T09:07:05;22.60;96.70
1075;DHT22;526;51.392;12.448;2023-09-18T09:09:31;22.80;96.20
1075;DHT22;526;51.392;12.448;2023-09-18T09:11:57;22.90;96.50
1075;DHT22;526;51.392;12.448;2023-09-18T09:14:34;23.00;95.50
1075;DHT22;526;51.392;12.448;2023-09-18T09:17:07;23.10;95.00
1075;DHT22;526;51.392;12.448;2023-09-18T09:19:34;23.10;95.30
1075;DHT22;526;51.392;12.448;2023-09-18T09:22:06;23.20;95.80
1075;DHT22;526;51.392;12.448;2023-09-18T09:24:39;23.20;95.00
1075;DHT22;526;51.392;12.448;2023-09-18T09:27:05;23.20;95.00
1075;DHT22;526;51.392;12.448;2023-09-18T09:29:31;23.20;95.60
1075;DHT22;526;51.392;12.448;2023-09-18T09:32:17;23.20;94.50
1075;DHT22;526;51.392;12.448;2023-09-18T09:34:44;23.20;95.00
1075;DHT22;526;51.392;12.448;2023-09-18T09:37:10;23.10;95.20
1075;DHT22;526;51.392;12.448;2023-09-18T09:39:49;23.10;94.00
1075;DHT22;526;51.392;12.448;2023-09-18T09:42:19;23.10;94.50
1075;DHT22;526;51.392;12.448;2023-09-18T09:45:02;23.10;95.10
1075;DHT22;526;51.392;12.448;2023-09-18T09:47:33;23.10;95.30
1075;DHT22;526;51.392;12.448;2023-09-18T09:49:59;23.20;94.90
1075;DHT22;526;51.392;12.448;2023-09-18T09:52:33;23.20;95.50
1075;DHT22;526;51.392;12.448;2023-09-18T09:54:59;23.30;95.20
1075;DHT22;526;51.392;12.448;2023-09-18T09:57:24;23.30;95.00
1075;DHT22;526;51.392;12.448;2023-09-18T09:59:50;23.40;94.70
1075;DHT22;526;51.392;12.448;2023-09-18T10:02:16;23.40;94.90
1075;DHT22;526;51.392;12.448;2023-09-18T10:04:45;23.50;95.20
1075;DHT22;526;51.392;12.448;2023-09-18T10:07:15;23.60;95.40
1075;DHT22;526;51.392;12.448;2023-09-18T10:09:44;23.60;95.50
1075;DHT22;526;51.392;12.448;2023-09-18T10:12:12;23.70;96.20
1075;DHT22;526;51.392;12.448;2023-09-18T10:14:51;23.70;95.90
1075;DHT22;526;51.392;12.448;2023-09-18T10:17:21;23.70;96.60
1075;DHT22;526;51.392;12.448;2023-09-18T10:20:08;23.80;96.60
1075;DHT22;526;51.392;12.448;2023-09-18T10:22:40;23.70;96.20
1075;DHT22;526;51.392;12.448;2023-09-18T10:25:17;23.70;96.30
1075;DHT22;526;51.392;12.448;2023-09-18T10:27:47;23.80;96.50
1075;DHT22;526;51.392;12.448;2023-09-18T10:30:17;23.80;97.20
1075;DHT22;526;51.392;12.448;2023-09-18T10:32:51;23.80;96.60
1075;DHT22;526;51.392;12.448;2023-09-18T10:35:17;23.80;96.30
1075;DHT22;526;51.392;12.448;2023-09-18T10:37:49;23.80;96.50
1075;DHT22;526;51.392;12.448;2023-09-18T10:40:17;23.80;97.20
1075;DHT22;526;51.392;12.448;2023-09-18T10:42:46;23.90;96.60
1075;DHT22;526;51.392;12.448;2023-09-18T10:45:13;24.00;95.90
1075;DHT22;526;51.392;12.448;2023-09-18T10:47:43;24.10;96.30
1075;DHT22;526;51.392;12.448;2023-09-18T10:50:25;24.20;94.10
1075;DHT22;526;51.392;12.448;2023-09-18T10:52:54;24.30;95.00
1075;DHT22;526;51.392;12.448;2023-09-18T10:55:22;24.60;93.90
1075;DHT22;526;51.392;12.448;2023-09-18T10:57:54;24.80;93.70
1075;DHT22;526;51.392;12.448;2023-09-18T11:00:23;24.90;93.20
1075;DHT22;526;51.392;12.448;2023-09-18T11:02:54;25.00;93.00
1075;DHT22;526;51.392;12.448;2023-09-18T11:05:34;25.00;91.50
1075;DHT22;526;51.392;12.448;2023-09-18T11:08:29;25.10;91.70
1075;DHT22;526;51.392;12.448;2023-09-18T11:11:03;25.10;92.00
1075;DHT22;526;51.392;12.448;2023-09-18T11:13:44;25.10;92.30
1075;DHT22;526;51.392;12.448;2023-09-18T11:18:50;25.10;92.60
1075;DHT22;526;51.392;12.448;2023-09-18T11:21:18;25.00;91.90
1075;DHT22;526;51.392;12.448;2023-09-18T11:23:44;25.00;91.40
1075;DHT22;526;51.392;12.448;2023-09-18T11:26:10;24.90;91.90
1075;DHT22;526;51.392;12.448;2023-09-18T11:28:37;24.90;92.20
1075;DHT22;526;51.392;12.448;2023-09-18T11:31:11;24.90;93.10
1075;DHT22;526;51.392;12.448;2023-09-18T11:33:41;24.90;92.10
1075;DHT22;526;51.392;12.448;2023-09-18T11:36:14;25.00;92.80
1075;DHT22;526;51.392;12.448;2023-09-18T11:38:57;25.00;93.50
1075;DHT22;526;51.392;12.448;2023-09-18T11:41:29;25.00;92.80
1075;DHT22;526;51.392;12.448;2023-09-18T11:46:40;25.10;93.00
1075;DHT22;526;51.392;12.448;2023-09-18T11:49:07;25.20;92.80
1075;DHT22;526;51.392;12.448;2023-09-18T11:51:37;25.20;92.70
1075;DHT22;526;51.392;12.448;2023-09-18T11:54:05;25.30;92.70
1075;DHT22;526;51.392;12.448;2023-09-18T11:56:33;25.30;91.60
1075;DHT22;526;51.392;12.448;2023-09-18T11:58:58;25.20;91.00
1075;DHT22;526;51.392;12.448;2023-09-18T12:01:27;25.20;91.50
1075;DHT22;526;51.392;12.448;2023-09-18T12:03:54;25.20;91.40
1075;DHT22;526;51.392;12.448;2023-09-18T12:06:21;25.10;90.60
1075;DHT22;526;51.392;12.448;2023-09-18T12:08:48;25.00;91.00
1075;DHT22;526;51.392;12.448;2023-09-18T12:11:16;25.00;91.00
1075;DHT22;526;51.392;12.448;2023-09-18T12:13:51;24.90;92.40
1075;DHT22;526;51.392;12.448;2023-09-18T12:16:17;24.80;93.30
1075;DHT22;526;51.392;12.448;2023-09-18T12:18:47;24.70;94.30
1075;DHT22;526;51.392;12.448;2023-09-18T12:21:14;24.70;95.30
1075;DHT22;526;51.392;12.448;2023-09-18T12:23:42;24.60;96.30
1075;DHT22;526;51.392;12.448;2023-09-18T12:26:14;24.50;96.00
1075;DHT22;526;51.392;12.448;2023-09-18T12:28:44;24.50;96.00
1075;DHT22;526;51.392;12.448;2023-09-18T12:31:13;24.40;97.30
1075;DHT22;526;51.392;12.448;2023-09-18T12:33:40;24.40;96.70
1075;DHT22;526;51.392;12.448;2023-09-18T12:36:10;24.30;96.50
1075;DHT22;526;51.392;12.448;2023-09-18T12:38:37;24.30;96.50
1075;DHT22;526;51.392;12.448;2023-09-18T12:41:04;24.30;96.90
1075;DHT22;526;51.392;12.448;2023-09-18T12:43:39;24.20;96.90
1075;DHT22;526;51.392;12.448;2023-09-18T12:46:06;24.20;96.90
1075;DHT22;526;51.392;12.448;2023-09-18T12:48:36;24.20;97.30
1075;DHT22;526;51.392;12.448;2023-09-18T12:51:10;24.20;97.30
1075;DHT22;526;51.392;12.448;2023-09-18T12:53:45;24.10;97.30
1075;DHT22;526;51.392;12.448;2023-09-18T12:56:12;24.10;97.30
1075;DHT22;526;51.392;12.448;2023-09-18T12:58:38;24.10;97.30
1075;DHT22;526;51.392;12.448;2023-09-18T13:01:09;24.10;97.30
1075;DHT22;526;51.392;12.448;2023-09-18T13:03:46;24.10;97.30
1075;DHT22;526;51.392;12.448;2023-09-18T13:06:20;24.00;97.30
1075;DHT22;526;51.392;12.448;2023-09-18T13:08:46;24.00;97.30
1075;DHT22;526;51.392;12.448;2023-09-18T13:11:13;24.00;97.30
1075;DHT22;526;51.392;12.448;2023-09-18T13:13:41;24.00;97.30
1075;DHT22;526;51.392;12.448;2023-09-18T13:16:09;23.90;97.30
1075;DHT22;526;51.392;12.448;2023-09-18T13:18:54;23.90;97.30
1075;DHT22;526;51.392;12.448;2023-09-18T13:21:23;23.90;97.30
1075;DHT22;526;51.392;12.448;2023-09-18T13:23:48;23.80;97.30
1075;DHT22;526;51.392;12.448;2023-09-18T13:26:16;23.80;97.30
1075;DHT22;526;51.392;12.448;2023-09-18T13:28:42;23.80;97.30
1075;DHT22;526;51.392;12.448;2023-09-18T13:31:10;23.70;97.30
1075;DHT22;526;51.392;12.448;2023-09-18T13:33:39;23.70;97.30
1075;DHT22;526;51.392;12.448;2023-09-18T13:36:05;23.70;97.30
1075;DHT22;526;51.392;12.448;2023-09-18T13:38:31;23.70;97.30
1075;DHT22;526;51.392;12.448;2023-09-18T13:40:59;23.60;97.30
1075;DHT22;526;51.392;12.448;2023-09-18T13:43:28;23.60;97.30
1075;DHT22;526;51.392;12.448;2023-09-18T13:46:00;23.60;97.20
1075;DHT22;526;51.392;12.448;2023-09-18T13:48:25;23.50;97.30
1075;DHT22;526;51.392;12.448;2023-09-18T13:50:51;23.50;97.30
1075;DHT22;526;51.392;12.448;2023-09-18T13:53:20;23.50;97.30
1075;DHT22;526;51.392;12.448;2023-09-18T13:55:47;23.50;97.30
1075;DHT22;526;51.392;12.448;2023-09-18T13:58:12;23.50;97.30
1075;DHT22;526;51.392;12.448;2023-09-18T14:00:38;23.50;97.20
1075;DHT22;526;51.392;12.448;2023-09-18T14:03:04;23.50;97.30
1075;DHT22;526;51.392;12.448;2023-09-18T14:05:29;23.50;97.20
1075;DHT22;526;51.392;12.448;2023-09-18T14:07:56;23.50;97.10
1075;DHT22;526;51.392;12.448;2023-09-18T14:10:25;23.50;96.90
1075;DHT22;526;51.392;12.448;2023-09-18T14:12:51;23.40;96.60
1075;DHT22;526;51.392;12.448;2023-09-18T14:15:16;23.40;96.60
1075;DHT22;526;51.392;12.448;2023-09-18T14:17:42;23.40;96.80
1075;DHT22;526;51.392;12.448;2023-09-18T14:20:08;23.40;97.00
1075;DHT22;526;51.392;12.448;2023-09-18T14:22:36;23.40;97.30
1075;DHT22;526;51.392;12.448;2023-09-18T14:25:04;23.30;97.30
1075;DHT22;526;51.392;12.448;2023-09-18T14:27:35;23.20;97.30
1075;DHT22;526;51.392;12.448;2023-09-18T14:30:00;23.00;97.30
1075;DHT22;526;51.392;12.448;2023-09-18T14:32:31;22.90;97.30
1075;DHT22;526;51.392;12.448;2023-09-18T14:34:57;22.80;97.30
1075;DHT22;526;51.392;12.448;2023-09-18T14:37:26;22.70;97.30
1075;DHT22;526;51.392;12.448;2023-09-18T14:39:52;22.60;97.30
1075;DHT22;526;51.392;12.448;2023-09-18T14:42:17;22.50;97.30
1075;DHT22;526;51.392;12.448;2023-09-18T14:44:43;22.50;97.30
1075;DHT22;526;51.392;12.448;2023-09-18T14:47:11;22.40;97.30
1075;DHT22;526;51.392;12.448;2023-09-18T14:49:37;22.40;97.30
1075;DHT22;526;51.392;12.448;2023-09-18T14:52:04;22.30;97.30
1075;DHT22;526;51.392;12.448;2023-09-18T14:54:30;22.30;97.30
1075;DHT22;526;51.392;12.448;2023-09-18T14:56:56;22.30;97.30
1075;DHT22;526;51.392;12.448;2023-09-18T14:59:26;22.20;97.30
1075;DHT22;526;51.392;12.448;2023-09-18T15:01:52;22.20;97.30
1075;DHT22;526;51.392;12.448;2023-09-18T15:04:17;22.10;97.30
1075;DHT22;526;51.392;12.448;2023-09-18T15:06:43;22.00;97.30
1075;DHT22;526;51.392;12.448;2023-09-18T15:09:08;22.00;97.30
1075;DHT22;526;51.392;12.448;2023-09-18T15:11:34;22.00;97.30
1075;DHT22;526;51.392;12.448;2023-09-18T15:14:03;22.00;97.30
1075;DHT22;526;51.392;12.448;2023-09-18T15:16:28;22.10;97.30
1075;DHT22;526;51.392;12.448;2023-09-18T15:18:55;22.10;97.30
1075;DHT22;526;51.392;12.448;2023-09-18T15:21:21;22.10;97.30
1075;DHT22;526;51.392;12.448;2023-09-18T15:23:46;22.10;97.30
1075;DHT22;526;51.392;12.448;2023-09-18T15:26:14;22.20;97.30
1075;DHT22;526;51.392;12.448;2023-09-18T15:28:39;22.20;97.30
1075;DHT22;526;51.392;12.448;2023-09-18T15:31:06;22.20;97.30
1075;DHT22;526;51.392;12.448;2023-09-18T15:33:31;22.20;97.30
1075;DHT22;526;51.392;12.448;2023-09-18T15:35:57;22.20;97.30
1075;DHT22;526;51.392;12.448;2023-09-18T15:38:23;22.20;97.30
1075;DHT22;526;51.392;12.448;2023-09-18T15:40:50;22.20;97.30
1075;DHT22;526;51.392;12.448;2023-09-18T15:43:15;22.20;97.30
1075;DHT22;526;51.392;12.448;2023-09-18T15:45:43;22.20;97.30
1075;DHT22;526;51.392;12.448;2023-09-18T15:48:08;22.20;97.30
1075;DHT22;526;51.392;12.448;2023-09-18T15:50:34;22.20;97.30
1075;DHT22;526;51.392;12.448;2023-09-18T15:53:00;22.20;97.30
1075;DHT22;526;51.392;12.448;2023-09-18T15:55:26;22.20;97.30
1075;DHT22;526;51.392;12.448;2023-09-18T15:57:51;22.20;97.30
1075;DHT22;526;51.392;12.448;2023-09-18T16:00:19;22.20;97.30
1075;DHT22;526;51.392;12.448;2023-09-18T16:02:45;22.20;97.30
1075;DHT22;526;51.392;12.448;2023-09-18T16:05:14;22.10;97.30
1075;DHT22;526;51.392;12.448;2023-09-18T16:07:41;22.10;97.30
1075;DHT22;526;51.392;12.448;2023-09-18T16:10:08;22.10;97.30
1075;DHT22;526;51.392;12.448;2023-09-18T16:12:34;22.00;97.30
1075;DHT22;526;51.392;12.448;2023-09-18T16:15:01;22.00;97.30
1075;DHT22;526;51.392;12.448;2023-09-18T16:17:27;21.90;97.30
1075;DHT22;526;51.392;12.448;2023-09-18T16:19:53;21.90;97.30
1075;DHT22;526;51.392;12.448;2023-09-18T16:22:20;21.80;97.30
1075;DHT22;526;51.392;12.448;2023-09-18T16:24:46;21.80;97.30
1075;DHT22;526;51.392;12.448;2023-09-18T16:27:12;21.70;97.30
1075;DHT22;526;51.392;12.448;2023-09-18T16:29:39;21.70;97.30
1075;DHT22;526;51.392;12.448;2023-09-18T16:32:05;21.70;97.30
1075;DHT22;526;51.392;12.448;2023-09-18T16:34:34;21.70;97.30
1075;DHT22;526;51.392;12.448;2023-09-18T16:37:00;21.60;97.30
1075;DHT22;526;51.392;12.448;2023-09-18T16:39:26;21.60;97.30
1075;DHT22;526;51.392;12.448;2023-09-18T16:41:53;21.60;97.30
1075;DHT22;526;51.392;12.448;2023-09-18T16:44:18;21.60;97.30
1075;DHT22;526;51.392;12.448;2023-09-18T16:46:44;21.60;97.30
1075;DHT22;526;51.392;12.448;2023-09-18T16:49:09;21.60;97.30
1075;DHT22;526;51.392;12.448;2023-09-18T16:51:37;21.60;97.30
1075;DHT22;526;51.392;12.448;2023-09-18T16:54:02;21.60;97.30
1075;DHT22;526;51.392;12.448;2023-09-18T16:56:28;21.60;97.30
1075;DHT22;526;51.392;12.448;2023-09-18T16:58:54;21.60;97.30
1075;DHT22;526;51.392;12.448;2023-09-18T17:01:20;21.60;97.30
1075;DHT22;526;51.392;12.448;2023-09-18T17:03:47;21.50;97.30
1075;DHT22;526;51.392;12.448;2023-09-18T17:06:14;21.50;97.30
1075;DHT22;526;51.392;12.448;2023-09-18T17:08:40;21.50;97.30
1075;DHT22;526;51.392;12.448;2023-09-18T17:11:06;21.50;97.30
1075;DHT22;526;51.392;12.448;2023-09-18T17:13:32;21.50;97.30
1075;DHT22;526;51.392;12.448;2023-09-18T17:15:58;21.40;97.30
1075;DHT22;526;51.392;12.448;2023-09-18T17:18:24;21.40;97.30
1075;DHT22;526;51.392;12.448;2023-09-18T17:20:50;21.40;97.30
1075;DHT22;526;51.392;12.448;2023-09-18T17:23:16;21.40;97.30
1075;DHT22;526;51.392;12.448;2023-09-18T17:25:41;21.30;97.30
1075;DHT22;526;51.392;12.448;2023-09-18T17:28:08;21.30;97.30
1075;DHT22;526;51.392;12.448;2023-09-18T17:30:34;21.30;97.30
1075;DHT22;526;51.392;12.448;2023-09-18T17:33:00;21.30;97.30
1075;DHT22;526;51.392;12.448;2023-09-18T17:35:26;21.30;97.30
1075;DHT22;526;51.392;12.448;2023-09-18T17:37:52;21.30;97.30
1075;DHT22;526;51.392;12.448;2023-09-18T17:40:17;21.30;97.30
1075;DHT22;526;51.392;12.448;2023-09-18T17:42:43;21.20;97.30
1075;DHT22;526;51.392;12.448;2023-09-18T17:45:09;21.20;97.30
1075;DHT22;526;51.392;12.448;2023-09-18T17:47:34;21.20;97.30
1075;DHT22;526;51.392;12.448;2023-09-18T17:50:00;21.20;97.30
1075;DHT22;526;51.392;12.448;2023-09-18T17:52:26;21.10;97.30
1075;DHT22;526;51.392;12.448;2023-09-18T17:54:52;21.10;97.30
1075;DHT22;526;51.392;12.448;2023-09-18T17:57:19;21.10;97.30
1075;DHT22;526;51.392;12.448;2023-09-18T17:59:44;21.10;97.30
1075;DHT22;526;51.392;12.448;2023-09-18T18:02:10;21.10;97.30
1075;DHT22;526;51.392;12.448;2023-09-18T18:04:35;21.00;97.30
1075;DHT22;526;51.392;12.448;2023-09-18T18:07:02;21.00;97.30
1075;DHT22;526;51.392;12.448;2023-09-18T18:09:27;20.90;97.30
1075;DHT22;526;51.392;12.448;2023-09-18T18:11:53;20.90;97.30
1075;DHT22;526;51.392;12.448;2023-09-18T18:14:19;20.80;97.30
1075;DHT22;526;51.392;12.448;2023-09-18T18:16:44;20.80;97.30
1075;DHT22;526;51.392;12.448;2023-09-18T18:19:10;20.80;97.30
1075;DHT22;526;51.392;12.448;2023-09-18T18:21:36;20.70;97.30
1075;DHT22;526;51.392;12.448;2023-09-18T18:24:03;20.70;97.30
1075;DHT22;526;51.392;12.448;2023-09-18T18:26:29;20.70;97.30
1075;DHT22;526;51.392;12.448;2023-09-18T18:28:55;20.60;97.30
1075;DHT22;526;51.392;12.448;2023-09-18T18:31:23;20.60;97.30
1075;DHT22;526;51.392;12.448;2023-09-18T18:33:49;20.50;97.30
1075;DHT22;526;51.392;12.448;2023-09-18T18:36:14;20.60;97.30
1075;DHT22;526;51.392;12.448;2023-09-18T18:38:40;20.50;97.30
1075;DHT22;526;51.392;12.448;2023-09-18T18:41:06;20.50;97.30
1075;DHT22;526;51.392;12.448;2023-09-18T18:43:32;20.50;97.30
1075;DHT22;526;51.392;12.448;2023-09-18T18:45:58;20.50;97.30
1075;DHT22;526;51.392;12.448;2023-09-18T18:48:25;20.40;97.30
1075;DHT22;526;51.392;12.448;2023-09-18T18:50:52;20.30;97.30
1075;DHT22;526;51.392;12.448;2023-09-18T18:53:20;20.30;97.30
1075;DHT22;526;51.392;12.448;2023-09-18T18:55:46;20.30;97.30
1075;DHT22;526;51.392;12.448;2023-09-18T18:58:12;20.30;97.30
1075;DHT22;526;51.392;12.448;2023-09-18T19:00:40;20.30;97.30
1075;DHT22;526;51.392;12.448;2023-09-18T19:03:07;20.20;97.30
1075;DHT22;526;51.392;12.448;2023-09-18T19:05:34;20.20;97.30
1075;DHT22;526;51.392;12.448;2023-09-18T19:08:01;20.20;97.30
1075;DHT22;526;51.392;12.448;2023-09-18T19:10:27;20.20;97.30
1075;DHT22;526;51.392;12.448;2023-09-18T19:12:54;20.20;97.30
1075;DHT22;526;51.392;12.448;2023-09-18T19:15:23;20.20;97.30
1075;DHT22;526;51.392;12.448;2023-09-18T19:17:51;20.20;97.30
1075;DHT22;526;51.392;12.448;2023-09-18T19:20:17;20.10;97.30
1075;DHT22;526;51.392;12.448;2023-09-18T19:22:43;20.10;97.30
1075;DHT22;526;51.392;12.448;2023-09-18T19:25:09;20.10;97.30
1075;DHT22;526;51.392;12.448;2023-09-18T19:27:35;20.10;97.30
1075;DHT22;526;51.392;12.448;2023-09-18T19:30:04;20.10;97.30
1075;DHT22;526;51.392;12.448;2023-09-18T19:32:39;20.10;97.30
1075;DHT22;526;51.392;12.448;2023-09-18T19:35:05;20.10;97.30
1075;DHT22;526;51.392;12.448;2023-09-18T19:37:31;20.10;97.30
1075;DHT22;526;51.392;12.448;2023-09-18T19:39:57;20.10;97.30
1075;DHT22;526;51.392;12.448;2023-09-18T19:42:23;20.10;97.30
1075;DHT22;526;51.392;12.448;2023-09-18T19:44:49;20.00;97.30
1075;DHT22;526;51.392;12.448;2023-09-18T19:47:15;20.00;97.30
1075;DHT22;526;51.392;12.448;2023-09-18T19:49:41;19.90;97.30
1075;DHT22;526;51.392;12.448;2023-09-18T19:52:07;19.80;97.30
1075;DHT22;526;51.392;12.448;2023-09-18T19:54:34;19.70;97.30
1075;DHT22;526;51.392;12.448;2023-09-18T19:57:00;19.60;97.30
1075;DHT22;526;51.392;12.448;2023-09-18T19:59:25;19.60;97.30
1075;DHT22;526;51.392;12.448;2023-09-18T20:01:51;19.50;97.30
1075;DHT22;526;51.392;12.448;2023-09-18T20:04:17;19.50;97.30
1075;DHT22;526;51.392;12.448;2023-09-18T20:06:42;19.40;97.30
1075;DHT22;526;51.392;12.448;2023-09-18T20:09:08;19.50;97.30
1075;DHT22;526;51.392;12.448;2023-09-18T20:11:35;19.50;97.30